TimeCST,TemperatureF,Dew PointF,Humidity,Sea Level PressureIn,VisibilityMPH,Wind Direction,Wind SpeedMPH,Gust SpeedMPH,PrecipitationIn,Events,Conditions,WindDirDegrees,DateUTC
12:15 AM,54.7,45.0,70,30.00,10.0,South,8.1,-,N/A,,Clear,190,2012-11-10 06:15:00
12:35 AM,55.4,45.5,69,30.01,10.0,SSW,10.4,-,N/A,,Clear,210,2012-11-10 06:35:00
12:55 AM,54.9,45.5,71,30.01,10.0,SSW,9.2,-,N/A,,Clear,200,2012-11-10 06:55:00
1:15 AM,54.7,45.5,71,30.02,10.0,SSW,8.1,-,N/A,,Clear,200,2012-11-10 07:15:00
1:35 AM,54.7,45.5,71,30.02,10.0,South,9.2,-,N/A,,Clear,190,2012-11-10 07:35:00
1:55 AM,53.8,45.5,74,30.02,10.0,South,8.1,-,N/A,,Clear,180,2012-11-10 07:55:00
2:15 AM,52.7,45.1,75,30.03,10.0,South,8.1,-,N/A,,Clear,180,2012-11-10 08:15:00
2:35 AM,52.0,44.6,76,30.02,10.0,South,9.2,-,N/A,,Clear,180,2012-11-10 08:35:00
2:55 AM,52.0,44.6,76,30.02,10.0,South,8.1,-,N/A,,Scattered Clouds,180,2012-11-10 08:55:00
3:15 AM,52.3,44.2,74,30.01,10.0,South,9.2,-,N/A,,Mostly Cloudy,180,2012-11-10 09:15:00
3:35 AM,52.9,44.1,72,30.01,10.0,South,9.2,-,N/A,,Mostly Cloudy,180,2012-11-10 09:35:00
3:55 AM,52.9,44.1,72,30.02,10.0,South,9.2,-,N/A,,Mostly Cloudy,180,2012-11-10 09:55:00
4:15 AM,53.1,43.7,71,30.02,10.0,South,10.4,-,N/A,,Mostly Cloudy,180,2012-11-10 10:15:00
4:35 AM,53.2,43.7,70,30.02,10.0,South,10.4,-,N/A,,Overcast,180,2012-11-10 10:35:00
4:55 AM,53.4,43.3,69,30.02,10.0,South,11.5,-,N/A,,Overcast,170,2012-11-10 10:55:00
5:15 AM,52.9,43.2,70,30.02,10.0,South,11.5,-,N/A,,Scattered Clouds,170,2012-11-10 11:15:00
5:35 AM,52.7,43.0,70,30.03,10.0,South,11.5,17.3,N/A,,Scattered Clouds,180,2012-11-10 11:35:00
5:55 AM,52.9,42.8,69,30.03,10.0,South,11.5,-,N/A,,Scattered Clouds,170,2012-11-10 11:55:00
6:15 AM,53.2,42.8,68,30.03,10.0,South,10.4,-,N/A,,Mostly Cloudy,170,2012-11-10 12:15:00
6:35 AM,52.7,42.4,68,30.03,10.0,South,10.4,-,N/A,,Scattered Clouds,170,2012-11-10 12:35:00
6:55 AM,52.7,42.6,69,30.03,10.0,South,11.5,-,N/A,,Scattered Clouds,180,2012-11-10 12:55:00
7:15 AM,53.2,42.8,68,30.03,10.0,South,13.8,-,N/A,,Clear,180,2012-11-10 13:15:00
7:35 AM,54.1,43.0,66,30.03,10.0,South,15.0,-,N/A,,Scattered Clouds,180,2012-11-10 13:35:00
7:55 AM,54.7,43.2,65,30.03,10.0,South,12.7,-,N/A,,Scattered Clouds,180,2012-11-10 13:55:00
8:15 AM,56.3,43.7,63,30.03,10.0,South,16.1,19.6,N/A,,Clear,190,2012-11-10 14:15:00
8:35 AM,57.6,44.4,62,30.03,10.0,South,16.1,23.0,N/A,,Clear,190,2012-11-10 14:35:00
8:55 AM,59.0,44.6,59,30.02,10.0,South,17.3,21.9,N/A,,Scattered Clouds,190,2012-11-10 14:55:00
9:15 AM,59.5,45.7,60,30.03,10.0,South,16.1,23.0,N/A,,Clear,190,2012-11-10 15:15:00
9:35 AM,60.6,46.0,59,30.03,10.0,SSW,16.1,21.9,N/A,,Clear,210,2012-11-10 15:35:00
9:55 AM,61.0,46.8,59,30.02,10.0,South,18.4,25.3,N/A,,Scattered Clouds,190,2012-11-10 15:55:00
10:15 AM,62.6,47.7,58,30.02,10.0,SSW,13.8,19.6,N/A,,Scattered Clouds,200,2012-11-10 16:15:00
10:35 AM,63.9,48.6,57,30.00,10.0,South,16.1,24.2,N/A,,Clear,190,2012-11-10 16:35:00
10:55 AM,65.3,49.3,56,30.00,10.0,SSW,16.1,21.9,N/A,,Clear,200,2012-11-10 16:55:00
11:15 AM,65.8,49.3,55,29.99,7.0,South,13.8,-,N/A,,Clear,180,2012-11-10 17:15:00
11:35 AM,67.3,49.8,53,29.97,10.0,South,12.7,-,N/A,,Clear,180,2012-11-10 17:35:00
11:55 AM,68.2,50.2,53,29.96,10.0,South,20.7,25.3,N/A,,Clear,180,2012-11-10 17:55:00
12:15 PM,68.9,50.5,52,29.96,10.0,South,19.6,24.2,N/A,,Clear,190,2012-11-10 18:15:00
12:35 PM,69.1,50.5,52,29.96,10.0,South,21.9,25.3,N/A,,Clear,190,2012-11-10 18:35:00
12:55 PM,69.8,50.9,51,29.96,7.0,South,18.4,25.3,N/A,,Clear,180,2012-11-10 18:55:00
1:15 PM,70.5,49.8,48,29.95,5.0,South,23.0,-,N/A,,Haze,190,2012-11-10 19:15:00
1:35 PM,70.9,48.4,45,29.95,5.0,SSW,20.7,28.8,N/A,,Haze,200,2012-11-10 19:35:00
1:55 PM,71.6,47.5,42,29.94,5.0,South,24.2,28.8,N/A,,Haze,190,2012-11-10 19:55:00
2:15 PM,72.0,46.8,41,29.94,5.0,SSW,24.2,31.1,N/A,,Haze,200,2012-11-10 20:15:00
2:35 PM,72.0,47.1,41,29.94,7.0,South,18.4,24.2,N/A,,Clear,190,2012-11-10 20:35:00
2:55 PM,71.8,47.3,42,29.94,7.0,South,21.9,28.8,N/A,,Clear,190,2012-11-10 20:55:00
3:15 PM,71.1,47.1,42,29.95,7.0,South,19.6,27.6,N/A,,Clear,190,2012-11-10 21:15:00
3:35 PM,70.7,46.9,43,29.95,4.0,South,19.6,25.3,N/A,,Haze,190,2012-11-10 21:35:00
3:55 PM,69.8,46.6,43,29.96,7.0,South,17.3,24.2,N/A,,Clear,180,2012-11-10 21:55:00
4:15 PM,68.9,46.6,45,29.96,5.0,South,15.0,26.5,N/A,,Haze,180,2012-11-10 22:15:00
4:35 PM,67.8,46.6,46,29.96,7.0,South,17.3,-,N/A,,Clear,180,2012-11-10 22:35:00
4:55 PM,66.9,46.8,48,29.97,7.0,South,18.4,24.2,N/A,,Clear,180,2012-11-10 22:55:00
5:15 PM,66.2,46.9,50,29.98,7.0,South,16.1,24.2,N/A,,Clear,180,2012-11-10 23:15:00
5:35 PM,65.5,47.3,52,29.99,7.0,South,18.4,23.0,N/A,,Clear,180,2012-11-10 23:35:00
5:55 PM,65.5,47.1,51,29.99,7.0,South,21.9,26.5,N/A,,Clear,180,2012-11-10 23:55:00
6:15 PM,64.9,46.9,52,30.00,5.0,South,18.4,24.2,N/A,,Haze,170,2012-11-11 00:15:00
6:35 PM,64.0,47.3,54,30.00,7.0,South,17.3,24.2,N/A,,Clear,180,2012-11-11 00:35:00
6:55 PM,63.7,47.3,55,30.00,7.0,South,20.7,27.6,N/A,,Clear,180,2012-11-11 00:55:00
7:15 PM,63.5,47.7,56,30.00,7.0,South,19.6,25.3,N/A,,Clear,180,2012-11-11 01:15:00
7:35 PM,63.5,48.2,57,30.00,7.0,South,18.4,26.5,N/A,,Clear,180,2012-11-11 01:35:00
7:55 PM,63.1,48.4,59,30.00,7.0,South,18.4,26.5,N/A,,Clear,180,2012-11-11 01:55:00
8:15 PM,62.8,48.4,59,30.00,7.0,South,19.6,25.3,N/A,,Clear,180,2012-11-11 02:15:00
8:35 PM,63.0,48.6,59,30.01,7.0,South,19.6,31.1,N/A,,Clear,190,2012-11-11 02:35:00
8:55 PM,63.0,48.6,59,30.00,7.0,South,21.9,27.6,N/A,,Clear,190,2012-11-11 02:55:00
9:15 PM,63.1,48.6,59,30.00,7.0,South,18.4,28.8,N/A,,Clear,180,2012-11-11 03:15:00
9:35 PM,62.6,48.2,59,30.00,7.0,South,17.3,26.5,N/A,,Clear,180,2012-11-11 03:35:00
9:55 PM,61.7,47.7,60,29.99,7.0,South,20.7,26.5,N/A,,Clear,180,2012-11-11 03:55:00
10:15 PM,61.9,47.3,59,29.99,7.0,South,18.4,26.5,N/A,,Clear,180,2012-11-11 04:15:00
10:35 PM,62.6,46.4,55,29.99,7.0,South,20.7,27.6,N/A,,Clear,180,2012-11-11 04:35:00
10:55 PM,60.8,46.2,59,29.99,7.0,South,20.7,26.5,N/A,,Clear,180,2012-11-11 04:55:00
11:15 PM,60.3,45.5,58,29.99,7.0,South,21.9,27.6,N/A,,Clear,180,2012-11-11 05:15:00
11:35 PM,59.9,45.1,58,29.98,7.0,South,19.6,-,N/A,,Clear,170,2012-11-11 05:35:00
11:55 PM,59.9,44.8,57,29.98,7.0,South,18.4,25.3,N/A,,Clear,180,2012-11-11 05:55:00